Terminal Aerodrome Forecast
Issued by NWS Pueblo, CO

Home | Current Version | Previous Version | Text Only | Print | Product List | Glossary On
Versions: 1 2 3 4 5 6 7 8 9 10 11 12 13 14 15 16 17 18 19 20 21 22 23 24 25 26 27 28 29 30 31 32 33 34 35
000
FTUS45 KPUB 272138 AAA
TAFCOS
TAF AMD
KCOS 272138Z 2722/2818 VRB06KT P6SM SCT100 SCT200
     FM272300 35010KT P6SM SCT100 SCT200
     FM280300 35006KT P6SM SKC
     FM281700 16005KT P6SM SKC=

USA.gov is the U.S. government's official web portal to all federal, state and local government web resources and services.